This is the latest recevied weather packets stored in our database for station/object WA4IKQ. If no packets are shown the sender has not sent any weather packets the latest 10 day(s).
| Time | Temp. | Humidity | Pressure | Rain* | Wind** | Luminosity | Snow |
|---|---|---|---|---|---|---|---|
| 1777743233 | 30.56° C | 57% | 1010.3 hPa | 0 mm | 8.49 m/s, 191° | - | - |
| 1777742348 | 30° C | 59% | 1010.2 hPa | 0 mm | 2.68 m/s, 162° | - | - |
| 1777742133 | 30° C | 58% | 1010.3 hPa | 0 mm | 4.02 m/s, 233° | - | - |
| 1777740920 | 30° C | 58% | 1010.5 hPa | 0 mm | 4.92 m/s, 170° | - | - |
| 1777739785 | 30° C | 58% | 1010.5 hPa | 0 mm | 4.02 m/s, 150° | - | - |
| 1777739167 | 30° C | 56% | 1010.5 hPa | 0 mm | 7.15 m/s, 163° | - | - |
| 1777739032 | 30° C | 56% | 1010.5 hPa | 0 mm | 7.15 m/s, 163° | - | - |
| 1777738484 | 30.56° C | 57% | 1010.5 hPa | 0 mm | 5.36 m/s, 111° | - | - |
| 1777737702 | 30° C | 58% | 1010.7 hPa | 0 mm | 3.13 m/s, 159° | - | - |
| 1777737533 | 30° C | 58% | 1010.7 hPa | 0 mm | 3.13 m/s, 159° | - | - |
| 1777736820 | 28.89° C | 63% | 1010.8 hPa | 0 mm | 3.58 m/s, 197° | - | - |
| 1777735901 | 28.33° C | 63% | 1011 hPa | 0 mm | 3.58 m/s, 141° | - | - |
| 1777735733 | 28.33° C | 63% | 1011 hPa | 0 mm | 3.58 m/s, 141° | - | - |
| 1777735601 | 27.78° C | 64% | 1011 hPa | 0 mm | 4.02 m/s, 166° | - | - |
| 1777735432 | 27.78° C | 64% | 1011 hPa | 0 mm | 4.02 m/s, 166° | - | - |
| 1777733929 | 27.22° C | 64% | 1011.2 hPa | 0 mm | 2.24 m/s, 183° | - | - |
| 1777733892 | 27.22° C | 64% | 1011.4 hPa | 0 mm | 4.47 m/s, 128° | - | - |
| 1777733635 | 27.22° C | 64% | 1011.4 hPa | 0 mm | 4.47 m/s, 128° | - | - |
| 1777733293 | 27.22° C | 64% | 1011.4 hPa | 0 mm | 2.24 m/s, 128° | - | - |
| 1777733034 | 27.22° C | 64% | 1011.5 hPa | 0 mm | 3.58 m/s, 179° | - | - |
| 1777733027 | 27.22° C | 64% | 1011.4 hPa | 0 mm | 2.24 m/s, 128° | - | - |
| 1777732903 | 27.22° C | 64% | 1011.5 hPa | 0 mm | 2.24 m/s, 180° | - | - |
| 1777732727 | 27.22° C | 64% | 1011.5 hPa | 0 mm | 3.58 m/s, 179° | - | - |
| 1777732428 | 27.22° C | 64% | 1011.5 hPa | 0 mm | 2.24 m/s, 180° | - | - |
| 1777732302 | 26.67° C | 65% | 1011.5 hPa | 0 mm | 2.68 m/s, 149° | - | - |
* Rain latest hour (hover to see other rain measurements)
** Current wind speed in m/s (hover to see current wind gust speed)